sensor_id;sensor_type;location;lat;lon;timestamp;pressure;altitude;pressure_sealevel;temperature;humidity
28004;BME280;15330;51.234;6.754;2023-07-09T00:01:15;101201.69;;;25.31;64.42
28004;BME280;15330;51.234;6.754;2023-07-09T00:03:42;101206.00;;;25.27;64.83
28004;BME280;15330;51.234;6.754;2023-07-09T00:06:08;101195.53;;;25.23;64.58
28004;BME280;15330;51.234;6.754;2023-07-09T00:08:34;101196.53;;;25.17;64.74
28004;BME280;15330;51.234;6.754;2023-07-09T00:10:59;101190.47;;;25.15;64.70
28004;BME280;15330;51.234;6.754;2023-07-09T00:13:27;101192.91;;;25.12;65.13
28004;BME280;15330;51.234;6.754;2023-07-09T00:15:56;101190.25;;;25.17;64.93
28004;BME280;15330;51.234;6.754;2023-07-09T00:18:23;101190.72;;;25.14;65.08
28004;BME280;15330;51.234;6.754;2023-07-09T00:20:48;101189.06;;;25.13;65.10
28004;BME280;15330;51.234;6.754;2023-07-09T00:23:14;101198.03;;;25.08;65.46
28004;BME280;15330;51.234;6.754;2023-07-09T00:25:43;101196.19;;;25.14;65.34
28004;BME280;15330;51.234;6.754;2023-07-09T00:28:16;101187.25;;;25.18;65.39
28004;BME280;15330;51.234;6.754;2023-07-09T00:30:43;101193.41;;;25.09;65.55
28004;BME280;15330;51.234;6.754;2023-07-09T00:33:12;101182.69;;;25.07;65.93
28004;BME280;15330;51.234;6.754;2023-07-09T00:35:42;101186.44;;;25.01;66.29
28004;BME280;15330;51.234;6.754;2023-07-09T00:38:13;101188.09;;;25.19;65.14
28004;BME280;15330;51.234;6.754;2023-07-09T00:40:46;101183.59;;;25.13;65.69
28004;BME280;15330;51.234;6.754;2023-07-09T00:43:15;101178.78;;;24.86;66.51
28004;BME280;15330;51.234;6.754;2023-07-09T00:45:41;101186.25;;;24.91;66.63
28004;BME280;15330;51.234;6.754;2023-07-09T00:48:12;101186.34;;;24.96;66.44
28004;BME280;15330;51.234;6.754;2023-07-09T00:50:47;101191.00;;;24.96;66.33
28004;BME280;15330;51.234;6.754;2023-07-09T00:53:25;101184.34;;;24.92;66.34
28004;BME280;15330;51.234;6.754;2023-07-09T00:55:59;101179.69;;;24.92;66.21
28004;BME280;15330;51.234;6.754;2023-07-09T00:58:28;101177.91;;;24.98;66.51
28004;BME280;15330;51.234;6.754;2023-07-09T01:00:58;101176.94;;;24.75;66.34
28004;BME280;15330;51.234;6.754;2023-07-09T01:03:45;101188.38;;;24.72;66.94
28004;BME280;15330;51.234;6.754;2023-07-09T01:06:13;101182.09;;;24.88;66.43
28004;BME280;15330;51.234;6.754;2023-07-09T01:08:41;101183.97;;;24.71;67.10
28004;BME280;15330;51.234;6.754;2023-07-09T01:11:17;101171.28;;;24.82;66.43
28004;BME280;15330;51.234;6.754;2023-07-09T01:13:50;101182.09;;;24.88;66.43
28004;BME280;15330;51.234;6.754;2023-07-09T01:16:18;101193.53;;;24.69;67.43
28004;BME280;15330;51.234;6.754;2023-07-09T01:18:43;101193.34;;;24.59;67.60
28004;BME280;15330;51.234;6.754;2023-07-09T01:21:10;101187.13;;;24.63;67.20
28004;BME280;15330;51.234;6.754;2023-07-09T01:23:41;101184.84;;;24.27;69.04
28004;BME280;15330;51.234;6.754;2023-07-09T01:26:20;101195.31;;;24.46;68.38
28004;BME280;15330;51.234;6.754;2023-07-09T01:28:46;101187.53;;;24.55;67.72
28004;BME280;15330;51.234;6.754;2023-07-09T01:31:14;101193.31;;;24.42;68.29
28004;BME280;15330;51.234;6.754;2023-07-09T01:33:41;101197.63;;;24.38;68.12
28004;BME280;15330;51.234;6.754;2023-07-09T01:36:11;101192.78;;;24.28;68.48
28004;BME280;15330;51.234;6.754;2023-07-09T01:38:42;101201.03;;;24.45;67.94
28004;BME280;15330;51.234;6.754;2023-07-09T01:41:08;101197.03;;;24.36;68.56
28004;BME280;15330;51.234;6.754;2023-07-09T01:43:34;101187.16;;;24.35;68.56
28004;BME280;15330;51.234;6.754;2023-07-09T01:45:59;101194.59;;;24.23;69.08
28004;BME280;15330;51.234;6.754;2023-07-09T01:48:26;101187.66;;;24.32;68.45
28004;BME280;15330;51.234;6.754;2023-07-09T01:50:53;101190.31;;;24.27;68.67
28004;BME280;15330;51.234;6.754;2023-07-09T01:53:21;101193.47;;;24.35;68.43
28004;BME280;15330;51.234;6.754;2023-07-09T01:55:51;101191.44;;;24.31;68.81
28004;BME280;15330;51.234;6.754;2023-07-09T01:58:19;101201.75;;;24.40;68.31
28004;BME280;15330;51.234;6.754;2023-07-09T02:00:50;101190.25;;;24.38;68.55
28004;BME280;15330;51.234;6.754;2023-07-09T02:03:15;101193.75;;;24.22;69.16
28004;BME280;15330;51.234;6.754;2023-07-09T02:05:43;101189.22;;;24.28;69.40
28004;BME280;15330;51.234;6.754;2023-07-09T02:08:08;101191.16;;;24.15;69.41
28004;BME280;15330;51.234;6.754;2023-07-09T02:10:33;101191.03;;;24.22;69.64
28004;BME280;15330;51.234;6.754;2023-07-09T02:12:59;101196.03;;;24.13;69.62
28004;BME280;15330;51.234;6.754;2023-07-09T02:15:24;101196.03;;;24.13;69.74
28004;BME280;15330;51.234;6.754;2023-07-09T02:17:49;101198.06;;;24.06;70.03
28004;BME280;15330;51.234;6.754;2023-07-09T02:20:17;101204.63;;;23.94;70.92
28004;BME280;15330;51.234;6.754;2023-07-09T02:22:44;101202.06;;;23.87;71.16
28004;BME280;15330;51.234;6.754;2023-07-09T02:25:10;101200.97;;;23.88;71.08
28004;BME280;15330;51.234;6.754;2023-07-09T02:27:37;101203.16;;;23.74;71.92
28004;BME280;15330;51.234;6.754;2023-07-09T02:30:07;101201.34;;;23.80;71.83
28004;BME280;15330;51.234;6.754;2023-07-09T02:32:32;101204.44;;;23.84;72.00
28004;BME280;15330;51.234;6.754;2023-07-09T02:34:58;101202.53;;;23.84;71.99
28004;BME280;15330;51.234;6.754;2023-07-09T02:37:24;101202.59;;;24.01;71.56
28004;BME280;15330;51.234;6.754;2023-07-09T02:39:51;101196.81;;;23.97;71.57
28004;BME280;15330;51.234;6.754;2023-07-09T02:42:19;101208.00;;;23.72;72.88
28004;BME280;15330;51.234;6.754;2023-07-09T02:44:45;101213.47;;;23.84;72.85
28004;BME280;15330;51.234;6.754;2023-07-09T02:47:11;101209.94;;;23.60;73.94
28004;BME280;15330;51.234;6.754;2023-07-09T02:49:37;101207.31;;;23.77;73.23
28004;BME280;15330;51.234;6.754;2023-07-09T02:52:03;101212.19;;;23.63;74.07
28004;BME280;15330;51.234;6.754;2023-07-09T02:54:28;101210.63;;;23.67;73.88
28004;BME280;15330;51.234;6.754;2023-07-09T02:56:54;101213.03;;;23.64;74.36
28004;BME280;15330;51.234;6.754;2023-07-09T02:59:19;101206.59;;;23.70;74.14
28004;BME280;15330;51.234;6.754;2023-07-09T03:01:45;101202.34;;;23.62;74.34
28004;BME280;15330;51.234;6.754;2023-07-09T03:04:12;101212.66;;;23.60;74.39
28004;BME280;15330;51.234;6.754;2023-07-09T03:06:38;101218.56;;;23.69;74.50
28004;BME280;15330;51.234;6.754;2023-07-09T03:09:04;101220.50;;;23.57;75.14
28004;BME280;15330;51.234;6.754;2023-07-09T03:11:31;101216.56;;;23.41;75.85
28004;BME280;15330;51.234;6.754;2023-07-09T03:13:58;101217.44;;;23.53;75.23
28004;BME280;15330;51.234;6.754;2023-07-09T03:16:26;101228.56;;;23.63;75.06
28004;BME280;15330;51.234;6.754;2023-07-09T03:18:51;101221.31;;;23.57;75.44
28004;BME280;15330;51.234;6.754;2023-07-09T03:21:17;101214.53;;;23.48;75.73
28004;BME280;15330;51.234;6.754;2023-07-09T03:23:42;101230.00;;;23.54;75.55
28004;BME280;15330;51.234;6.754;2023-07-09T03:26:07;101226.31;;;23.60;75.31
28004;BME280;15330;51.234;6.754;2023-07-09T03:28:33;101229.84;;;23.37;75.97
28004;BME280;15330;51.234;6.754;2023-07-09T03:30:59;101230.44;;;23.39;76.06
28004;BME280;15330;51.234;6.754;2023-07-09T03:33:24;101234.97;;;23.57;75.21
28004;BME280;15330;51.234;6.754;2023-07-09T03:35:51;101238.19;;;23.66;74.97
28004;BME280;15330;51.234;6.754;2023-07-09T03:38:17;101241.03;;;23.71;74.14
28004;BME280;15330;51.234;6.754;2023-07-09T03:40:43;101245.06;;;23.57;74.90
28004;BME280;15330;51.234;6.754;2023-07-09T03:43:09;101230.72;;;23.50;75.20
28004;BME280;15330;51.234;6.754;2023-07-09T03:45:35;101234.41;;;23.67;74.47
28004;BME280;15330;51.234;6.754;2023-07-09T03:48:02;101238.78;;;23.68;73.94
28004;BME280;15330;51.234;6.754;2023-07-09T03:50:28;101241.03;;;23.59;74.17
28004;BME280;15330;51.234;6.754;2023-07-09T03:52:53;101244.97;;;23.52;74.40
28004;BME280;15330;51.234;6.754;2023-07-09T03:55:19;101245.44;;;23.60;74.22
28004;BME280;15330;51.234;6.754;2023-07-09T03:57:45;101248.97;;;23.37;74.73
28004;BME280;15330;51.234;6.754;2023-07-09T04:00:11;101241.59;;;23.38;74.78
28004;BME280;15330;51.234;6.754;2023-07-09T04:02:37;101240.53;;;23.39;75.03
28004;BME280;15330;51.234;6.754;2023-07-09T04:05:03;101247.53;;;23.47;74.07
28004;BME280;15330;51.234;6.754;2023-07-09T04:07:29;101243.41;;;23.44;74.59
28004;BME280;15330;51.234;6.754;2023-07-09T04:09:54;101246.03;;;23.51;74.13
28004;BME280;15330;51.234;6.754;2023-07-09T04:12:20;101243.84;;;23.29;75.10
28004;BME280;15330;51.234;6.754;2023-07-09T04:14:45;101243.06;;;23.52;74.10
28004;BME280;15330;51.234;6.754;2023-07-09T04:17:11;101245.53;;;23.42;74.29
28004;BME280;15330;51.234;6.754;2023-07-09T04:19:36;101241.41;;;23.51;73.72
28004;BME280;15330;51.234;6.754;2023-07-09T04:22:02;101243.16;;;23.34;74.63
28004;BME280;15330;51.234;6.754;2023-07-09T04:24:27;101238.91;;;23.50;74.00
28004;BME280;15330;51.234;6.754;2023-07-09T04:26:53;101248.50;;;23.40;74.14
28004;BME280;15330;51.234;6.754;2023-07-09T04:29:24;101241.63;;;23.50;74.05
28004;BME280;15330;51.234;6.754;2023-07-09T04:31:50;101259.22;;;23.54;73.67
28004;BME280;15330;51.234;6.754;2023-07-09T04:34:15;101261.47;;;23.57;73.53
28004;BME280;15330;51.234;6.754;2023-07-09T04:36:40;101258.50;;;23.58;73.17
28004;BME280;15330;51.234;6.754;2023-07-09T04:39:06;101257.75;;;23.39;73.94
28004;BME280;15330;51.234;6.754;2023-07-09T04:41:32;101250.63;;;23.38;74.10
28004;BME280;15330;51.234;6.754;2023-07-09T04:43:58;101252.19;;;23.34;74.07
28004;BME280;15330;51.234;6.754;2023-07-09T04:46:23;101254.91;;;23.34;74.35
28004;BME280;15330;51.234;6.754;2023-07-09T04:48:49;101248.13;;;23.37;74.25
28004;BME280;15330;51.234;6.754;2023-07-09T04:51:14;101253.16;;;23.52;74.12
28004;BME280;15330;51.234;6.754;2023-07-09T04:53:39;101255.03;;;23.39;74.48
28004;BME280;15330;51.234;6.754;2023-07-09T04:56:06;101249.91;;;23.20;75.33
28004;BME280;15330;51.234;6.754;2023-07-09T04:58:31;101254.09;;;23.34;74.88
28004;BME280;15330;51.234;6.754;2023-07-09T05:00:57;101254.31;;;23.32;74.95
28004;BME280;15330;51.234;6.754;2023-07-09T05:03:23;101257.75;;;23.39;74.67
28004;BME280;15330;51.234;6.754;2023-07-09T05:05:48;101256.81;;;23.46;75.00
28004;BME280;15330;51.234;6.754;2023-07-09T05:08:14;101254.94;;;23.46;74.85
28004;BME280;15330;51.234;6.754;2023-07-09T05:10:41;101259.53;;;23.34;75.35
28004;BME280;15330;51.234;6.754;2023-07-09T05:13:07;101260.16;;;23.36;75.22
28004;BME280;15330;51.234;6.754;2023-07-09T05:15:32;101253.50;;;23.43;74.87
28004;BME280;15330;51.234;6.754;2023-07-09T05:17:58;101256.31;;;23.49;74.36
28004;BME280;15330;51.234;6.754;2023-07-09T05:20:23;101257.31;;;23.54;74.45
28004;BME280;15330;51.234;6.754;2023-07-09T05:22:50;101261.59;;;23.50;74.13
28004;BME280;15330;51.234;6.754;2023-07-09T05:25:15;101256.97;;;23.62;74.07
28004;BME280;15330;51.234;6.754;2023-07-09T05:27:42;101250.78;;;23.67;73.68
28004;BME280;15330;51.234;6.754;2023-07-09T05:30:08;101254.56;;;23.77;73.30
28004;BME280;15330;51.234;6.754;2023-07-09T05:32:34;101253.97;;;23.87;72.79
28004;BME280;15330;51.234;6.754;2023-07-09T05:35:00;101248.50;;;23.87;72.71
28004;BME280;15330;51.234;6.754;2023-07-09T05:37:27;101248.13;;;23.95;72.92
28004;BME280;15330;51.234;6.754;2023-07-09T05:39:52;101244.63;;;24.11;72.55
28004;BME280;15330;51.234;6.754;2023-07-09T05:42:18;101252.50;;;24.08;72.71
28004;BME280;15330;51.234;6.754;2023-07-09T05:44:43;101250.63;;;23.97;72.78
28004;BME280;15330;51.234;6.754;2023-07-09T05:47:09;101253.34;;;24.08;72.44
28004;BME280;15330;51.234;6.754;2023-07-09T05:49:34;101252.16;;;24.04;72.16
28004;BME280;15330;51.234;6.754;2023-07-09T05:52:00;101250.44;;;24.27;71.81
28004;BME280;15330;51.234;6.754;2023-07-09T05:54:25;101247.81;;;24.32;71.17
28004;BME280;15330;51.234;6.754;2023-07-09T05:56:51;101247.28;;;24.46;70.62
28004;BME280;15330;51.234;6.754;2023-07-09T05:59:16;101255.69;;;24.57;70.57
28004;BME280;15330;51.234;6.754;2023-07-09T06:01:41;101248.31;;;24.57;70.24
28004;BME280;15330;51.234;6.754;2023-07-09T06:04:07;101246.59;;;24.68;69.90
28004;BME280;15330;51.234;6.754;2023-07-09T06:06:32;101253.91;;;24.79;69.50
28004;BME280;15330;51.234;6.754;2023-07-09T06:08:58;101251.31;;;24.72;69.15
28004;BME280;15330;51.234;6.754;2023-07-09T06:11:23;101251.75;;;24.81;69.15
28004;BME280;15330;51.234;6.754;2023-07-09T06:13:49;101247.91;;;24.82;69.15
28004;BME280;15330;51.234;6.754;2023-07-09T06:16:15;101251.56;;;24.99;68.64
28004;BME280;15330;51.234;6.754;2023-07-09T06:18:41;101254.28;;;25.33;67.62
28004;BME280;15330;51.234;6.754;2023-07-09T06:21:06;101253.19;;;25.34;66.97
28004;BME280;15330;51.234;6.754;2023-07-09T06:23:34;101249.66;;;25.33;66.93
28004;BME280;15330;51.234;6.754;2023-07-09T06:25:59;101254.25;;;25.66;66.73
28004;BME280;15330;51.234;6.754;2023-07-09T06:28:26;101250.41;;;25.84;65.88
28004;BME280;15330;51.234;6.754;2023-07-09T06:30:54;101253.50;;;25.71;65.45
28004;BME280;15330;51.234;6.754;2023-07-09T06:33:20;101250.56;;;25.94;65.68
28004;BME280;15330;51.234;6.754;2023-07-09T06:35:58;101247.72;;;25.89;65.46
28004;BME280;15330;51.234;6.754;2023-07-09T06:38:24;101250.72;;;26.09;65.33
28004;BME280;15330;51.234;6.754;2023-07-09T06:40:50;101248.31;;;25.91;64.75
28004;BME280;15330;51.234;6.754;2023-07-09T06:43:16;101251.69;;;25.98;65.24
28004;BME280;15330;51.234;6.754;2023-07-09T06:45:49;101255.06;;;26.49;64.11
28004;BME280;15330;51.234;6.754;2023-07-09T06:48:15;101253.00;;;26.61;63.12
28004;BME280;15330;51.234;6.754;2023-07-09T06:50:41;101261.41;;;26.76;63.08
28004;BME280;15330;51.234;6.754;2023-07-09T06:53:07;101252.09;;;26.82;62.74
28004;BME280;15330;51.234;6.754;2023-07-09T06:55:32;101254.34;;;26.85;63.06
28004;BME280;15330;51.234;6.754;2023-07-09T06:57:58;101259.56;;;26.60;63.19
28004;BME280;15330;51.234;6.754;2023-07-09T07:00:24;101257.66;;;26.87;62.00
28004;BME280;15330;51.234;6.754;2023-07-09T07:02:51;101263.22;;;26.92;62.25
28004;BME280;15330;51.234;6.754;2023-07-09T07:05:17;101262.28;;;27.09;61.89
28004;BME280;15330;51.234;6.754;2023-07-09T07:07:43;101264.63;;;27.27;61.18
28004;BME280;15330;51.234;6.754;2023-07-09T07:10:09;101258.84;;;26.69;62.47
28004;BME280;15330;51.234;6.754;2023-07-09T07:12:42;101253.56;;;27.22;61.99
28004;BME280;15330;51.234;6.754;2023-07-09T07:15:08;101261.19;;;27.52;61.29
28004;BME280;15330;51.234;6.754;2023-07-09T07:17:34;101260.84;;;27.75;60.70
28004;BME280;15330;51.234;6.754;2023-07-09T07:19:59;101252.84;;;27.73;60.45
28004;BME280;15330;51.234;6.754;2023-07-09T07:22:25;101252.06;;;27.78;60.37
28004;BME280;15330;51.234;6.754;2023-07-09T07:24:51;101257.44;;;28.15;59.88
28004;BME280;15330;51.234;6.754;2023-07-09T07:27:16;101248.31;;;28.04;59.31
28004;BME280;15330;51.234;6.754;2023-07-09T07:29:42;101249.56;;;28.29;59.07
28004;BME280;15330;51.234;6.754;2023-07-09T07:32:07;101246.84;;;28.34;58.73
28004;BME280;15330;51.234;6.754;2023-07-09T07:34:33;101239.72;;;28.58;58.30
28004;BME280;15330;51.234;6.754;2023-07-09T07:36:59;101246.56;;;28.40;58.28
28004;BME280;15330;51.234;6.754;2023-07-09T07:39:24;101234.47;;;28.41;58.05
28004;BME280;15330;51.234;6.754;2023-07-09T07:41:49;101249.63;;;28.59;57.91
28004;BME280;15330;51.234;6.754;2023-07-09T07:44:16;101254.34;;;28.69;57.34
28004;BME280;15330;51.234;6.754;2023-07-09T07:46:42;101239.47;;;28.70;57.53
28004;BME280;15330;51.234;6.754;2023-07-09T07:49:07;101242.53;;;28.78;56.96
28004;BME280;15330;51.234;6.754;2023-07-09T07:51:32;101245.53;;;28.77;57.00
28004;BME280;15330;51.234;6.754;2023-07-09T07:53:59;101240.63;;;28.94;56.58
28004;BME280;15330;51.234;6.754;2023-07-09T07:56:24;101251.38;;;28.91;56.72
28004;BME280;15330;51.234;6.754;2023-07-09T07:58:51;101240.06;;;29.23;55.94
28004;BME280;15330;51.234;6.754;2023-07-09T08:01:16;101239.25;;;29.07;56.07
28004;BME280;15330;51.234;6.754;2023-07-09T08:03:42;101242.47;;;29.70;54.36
28004;BME280;15330;51.234;6.754;2023-07-09T08:06:07;101246.63;;;29.72;54.12
28004;BME280;15330;51.234;6.754;2023-07-09T08:08:33;101237.00;;;29.65;54.61
28004;BME280;15330;51.234;6.754;2023-07-09T08:11:03;101242.72;;;29.83;53.55
28004;BME280;15330;51.234;6.754;2023-07-09T08:13:31;101244.91;;;29.97;52.98
28004;BME280;15330;51.234;6.754;2023-07-09T08:15:58;101252.06;;;30.03;54.44
28004;BME280;15330;51.234;6.754;2023-07-09T08:18:23;101241.34;;;29.96;54.42
28004;BME280;15330;51.234;6.754;2023-07-09T08:20:48;101235.69;;;30.21;53.26
28004;BME280;15330;51.234;6.754;2023-07-09T08:23:14;101231.25;;;30.31;53.82
28004;BME280;15330;51.234;6.754;2023-07-09T08:25:39;101233.28;;;30.05;53.86
28004;BME280;15330;51.234;6.754;2023-07-09T08:28:05;101224.19;;;30.58;54.06
28004;BME280;15330;51.234;6.754;2023-07-09T08:30:30;101231.31;;;30.64;55.14
28004;BME280;15330;51.234;6.754;2023-07-09T08:32:55;101215.94;;;30.87;53.59
28004;BME280;15330;51.234;6.754;2023-07-09T08:35:22;101217.63;;;31.22;52.20
28004;BME280;15330;51.234;6.754;2023-07-09T08:37:47;101210.16;;;30.89;52.67
28004;BME280;15330;51.234;6.754;2023-07-09T08:40:14;101215.19;;;31.16;52.01
28004;BME280;15330;51.234;6.754;2023-07-09T08:42:45;101209.91;;;31.19;50.31
28004;BME280;15330;51.234;6.754;2023-07-09T08:45:32;101211.44;;;30.96;51.40
28004;BME280;15330;51.234;6.754;2023-07-09T08:48:06;101220.50;;;31.36;50.04
28004;BME280;15330;51.234;6.754;2023-07-09T08:50:40;101211.09;;;31.08;49.87
28004;BME280;15330;51.234;6.754;2023-07-09T08:55:57;101217.22;;;31.34;49.18
28004;BME280;15330;51.234;6.754;2023-07-09T08:58:25;101224.63;;;31.38;48.76
28004;BME280;15330;51.234;6.754;2023-07-09T09:01:05;101217.06;;;31.49;47.99
28004;BME280;15330;51.234;6.754;2023-07-09T09:03:41;101223.72;;;31.19;47.98
28004;BME280;15330;51.234;6.754;2023-07-09T09:06:12;101219.34;;;31.71;46.88
28004;BME280;15330;51.234;6.754;2023-07-09T09:14:16;101215.78;;;31.89;46.80
28004;BME280;15330;51.234;6.754;2023-07-09T09:16:45;101214.63;;;32.14;45.87
28004;BME280;15330;51.234;6.754;2023-07-09T09:19:32;101208.91;;;31.87;46.26
28004;BME280;15330;51.234;6.754;2023-07-09T09:22:07;101207.28;;;31.86;46.22
28004;BME280;15330;51.234;6.754;2023-07-09T09:24:37;101201.69;;;32.09;45.70
28004;BME280;15330;51.234;6.754;2023-07-09T09:27:04;101196.34;;;32.18;45.32
28004;BME280;15330;51.234;6.754;2023-07-09T09:29:29;101197.47;;;32.36;44.84
28004;BME280;15330;51.234;6.754;2023-07-09T09:31:56;101197.97;;;31.77;45.74
28004;BME280;15330;51.234;6.754;2023-07-09T09:34:28;101179.72;;;32.74;43.71
28004;BME280;15330;51.234;6.754;2023-07-09T09:36:55;101188.22;;;32.97;44.72
28004;BME280;15330;51.234;6.754;2023-07-09T09:39:20;101187.56;;;32.30;42.93
28004;BME280;15330;51.234;6.754;2023-07-09T09:41:47;101181.19;;;32.67;43.19
28004;BME280;15330;51.234;6.754;2023-07-09T09:44:26;101186.84;;;32.80;42.40
28004;BME280;15330;51.234;6.754;2023-07-09T09:46:52;101192.31;;;32.48;43.73
28004;BME280;15330;51.234;6.754;2023-07-09T09:49:18;101188.38;;;32.87;41.81
28004;BME280;15330;51.234;6.754;2023-07-09T09:51:46;101181.59;;;32.79;42.46
28004;BME280;15330;51.234;6.754;2023-07-09T09:54:21;101173.28;;;32.93;42.04
28004;BME280;15330;51.234;6.754;2023-07-09T09:56:50;101181.31;;;33.27;41.83
28004;BME280;15330;51.234;6.754;2023-07-09T09:59:21;101178.00;;;33.25;41.81
28004;BME280;15330;51.234;6.754;2023-07-09T10:01:57;101181.13;;;33.50;41.84
28004;BME280;15330;51.234;6.754;2023-07-09T10:04:23;101179.19;;;33.78;41.94
28004;BME280;15330;51.234;6.754;2023-07-09T10:06:53;101178.06;;;33.93;41.62
28004;BME280;15330;51.234;6.754;2023-07-09T10:21:10;101155.53;;;32.94;41.89
28004;BME280;15330;51.234;6.754;2023-07-09T10:23:55;101162.44;;;33.42;41.74
28004;BME280;15330;51.234;6.754;2023-07-09T10:26:33;101158.44;;;33.76;41.94
28004;BME280;15330;51.234;6.754;2023-07-09T10:32:13;101156.06;;;33.83;41.19
28004;BME280;15330;51.234;6.754;2023-07-09T10:34:50;101156.38;;;33.81;40.36
28004;BME280;15330;51.234;6.754;2023-07-09T10:39:57;101160.75;;;33.96;39.96
28004;BME280;15330;51.234;6.754;2023-07-09T10:42:30;101157.81;;;34.29;38.77
28004;BME280;15330;51.234;6.754;2023-07-09T10:45:02;101162.75;;;34.18;39.45
28004;BME280;15330;51.234;6.754;2023-07-09T10:50:05;101157.88;;;34.01;39.78
28004;BME280;15330;51.234;6.754;2023-07-09T10:52:37;101163.22;;;35.23;40.22
28004;BME280;15330;51.234;6.754;2023-07-09T10:55:26;101153.81;;;35.10;38.51
28004;BME280;15330;51.234;6.754;2023-07-09T10:58:03;101150.19;;;35.01;38.21
28004;BME280;15330;51.234;6.754;2023-07-09T11:00:40;101159.63;;;34.47;38.43
28004;BME280;15330;51.234;6.754;2023-07-09T11:03:15;101151.38;;;34.78;37.62
28004;BME280;15330;51.234;6.754;2023-07-09T11:05:41;101151.13;;;34.88;37.47
28004;BME280;15330;51.234;6.754;2023-07-09T11:08:21;101150.50;;;35.00;36.79
28004;BME280;15330;51.234;6.754;2023-07-09T11:10:53;101138.91;;;34.53;37.25
28004;BME280;15330;51.234;6.754;2023-07-09T11:13:42;101135.50;;;34.56;37.67
28004;BME280;15330;51.234;6.754;2023-07-09T11:16:13;101123.25;;;34.57;37.91
28004;BME280;15330;51.234;6.754;2023-07-09T11:18:40;101117.28;;;34.94;36.76
28004;BME280;15330;51.234;6.754;2023-07-09T11:21:16;101109.78;;;34.73;37.10
28004;BME280;15330;51.234;6.754;2023-07-09T11:23:53;101116.22;;;34.59;37.50
28004;BME280;15330;51.234;6.754;2023-07-09T11:29:16;101107.78;;;34.65;37.74
28004;BME280;15330;51.234;6.754;2023-07-09T11:31:44;101100.25;;;34.87;36.76
28004;BME280;15330;51.234;6.754;2023-07-09T11:37:08;101090.00;;;34.74;37.61
28004;BME280;15330;51.234;6.754;2023-07-09T11:42:02;101088.16;;;34.92;37.92
28004;BME280;15330;51.234;6.754;2023-07-09T11:44:32;101087.03;;;35.32;38.20
28004;BME280;15330;51.234;6.754;2023-07-09T11:49:49;101093.59;;;35.37;37.01
28004;BME280;15330;51.234;6.754;2023-07-09T11:52:22;101093.44;;;35.02;36.64
28004;BME280;15330;51.234;6.754;2023-07-09T11:54:49;101094.50;;;35.23;36.76
28004;BME280;15330;51.234;6.754;2023-07-09T11:57:16;101090.81;;;35.28;37.18
28004;BME280;15330;51.234;6.754;2023-07-09T11:59:43;101096.88;;;35.39;37.37
28004;BME280;15330;51.234;6.754;2023-07-09T12:02:19;101102.91;;;35.32;36.84
28004;BME280;15330;51.234;6.754;2023-07-09T12:04:50;101105.19;;;34.99;37.48
28004;BME280;15330;51.234;6.754;2023-07-09T12:07:16;101105.13;;;34.82;37.74
28004;BME280;15330;51.234;6.754;2023-07-09T12:09:49;101094.31;;;34.80;37.78
28004;BME280;15330;51.234;6.754;2023-07-09T12:12:26;101105.13;;;34.82;37.61
28004;BME280;15330;51.234;6.754;2023-07-09T12:14:52;101101.09;;;34.43;37.59
28004;BME280;15330;51.234;6.754;2023-07-09T12:17:18;101100.06;;;34.61;38.39
28004;BME280;15330;51.234;6.754;2023-07-09T12:19:43;101100.06;;;34.84;37.73
28004;BME280;15330;51.234;6.754;2023-07-09T12:22:17;101094.56;;;34.70;38.45
28004;BME280;15330;51.234;6.754;2023-07-09T12:24:45;101090.28;;;34.86;38.59
28004;BME280;15330;51.234;6.754;2023-07-09T12:27:24;101073.88;;;35.16;38.37
28004;BME280;15330;51.234;6.754;2023-07-09T12:29:55;101081.53;;;35.10;37.90
28004;BME280;15330;51.234;6.754;2023-07-09T12:32:21;101070.94;;;34.81;37.11
28004;BME280;15330;51.234;6.754;2023-07-09T12:34:53;101062.81;;;34.63;37.08
28004;BME280;15330;51.234;6.754;2023-07-09T12:37:20;101057.03;;;35.21;37.43
28004;BME280;15330;51.234;6.754;2023-07-09T12:39:49;101054.38;;;35.07;37.48
28004;BME280;15330;51.234;6.754;2023-07-09T12:42:18;101059.44;;;35.05;36.78
28004;BME280;15330;51.234;6.754;2023-07-09T12:44:45;101064.44;;;34.64;37.18
28004;BME280;15330;51.234;6.754;2023-07-09T12:47:13;101058.25;;;34.67;37.31
28004;BME280;15330;51.234;6.754;2023-07-09T12:49:41;101055.41;;;34.58;37.47
28004;BME280;15330;51.234;6.754;2023-07-09T12:52:28;101047.75;;;34.33;38.10
28004;BME280;15330;51.234;6.754;2023-07-09T12:54:57;101045.72;;;34.24;38.64
28004;BME280;15330;51.234;6.754;2023-07-09T12:57:24;101041.91;;;34.20;38.29
28004;BME280;15330;51.234;6.754;2023-07-09T12:59:50;101023.09;;;34.17;37.69
28004;BME280;15330;51.234;6.754;2023-07-09T13:02:21;101030.50;;;34.00;37.33
28004;BME280;15330;51.234;6.754;2023-07-09T13:04:48;101033.06;;;33.96;38.33
28004;BME280;15330;51.234;6.754;2023-07-09T13:09:52;101023.09;;;33.95;38.08
28004;BME280;15330;51.234;6.754;2023-07-09T13:12:19;101011.53;;;33.79;38.27
28004;BME280;15330;51.234;6.754;2023-07-09T13:14:54;101012.38;;;33.80;37.86
28004;BME280;15330;51.234;6.754;2023-07-09T13:17:20;101010.41;;;33.80;37.81
28004;BME280;15330;51.234;6.754;2023-07-09T13:19:46;101007.34;;;33.68;37.42
28004;BME280;15330;51.234;6.754;2023-07-09T13:22:15;101001.94;;;33.63;37.43
28004;BME280;15330;51.234;6.754;2023-07-09T13:24:42;100998.03;;;33.50;37.73
28004;BME280;15330;51.234;6.754;2023-07-09T13:27:14;100998.78;;;33.42;38.00
28004;BME280;15330;51.234;6.754;2023-07-09T13:29:41;101005.47;;;33.41;38.41
28004;BME280;15330;51.234;6.754;2023-07-09T13:32:10;101016.97;;;33.35;38.05
28004;BME280;15330;51.234;6.754;2023-07-09T13:34:36;101023.25;;;33.27;37.17
28004;BME280;15330;51.234;6.754;2023-07-09T13:37:03;101011.44;;;33.21;37.36